Create Custom Reports and Graphics: Custom Report

Northern Napa County Map

Map

15 Minute Data

Southern Napa County Map

Map

15 Minute Data

Napa County - East

Latest Observations

15 Minute Data | America/Los_Angeles
as of 2/23/20 2:12 PM PST
Station Date Time Temp (°F) Dew Pt (°F) RH (%) Wind Dir (°) Wind Spd (mph) Wind Gust (mph) Latest Rain (In) Daily Rain (In) Daily Min Temp (°F) Daily Max Temp (°F)
Pope Valley - Weeks Lake 2/23/20 1400 66.5   7.7 42.4   8.7 41   19 SE | 128 3.5   3.5 8.1   5.7 0.00   0.00 0.00   0.00 30.7   2.1 67.2   7.9
Dollarhide - STS 2/23/20 1400 66.7   6.1 45.7   2.1 47   12 SSW | 195 6.4   2.0 11.4   2.8 0.00   0.00 0.00   0.00 35.3   2.6 67.3   7.6
1AS Remote - STS 2/23/20 1400 66.2   5.8 44.0   1.8 44   10 SSW | 197 5.4   1.8 9.4   5.5 - - 33.0   4.5 67.0   6.7
17B Remote - STS 2/23/20 1400 67.4   6.8 46.1   6.1 46   17 - - - - - 37.9   3.3 68.0   7.6
18A Remote - STS 2/23/20 1400 65.6   5.7 44.3   1.9 46   11 - - - - - 31.8   4.2 66.5   6.5
Brown Estate-Lower Chiles Valley 2/23/20 1400 63.4   5.6 42.8   2.9 47   12 NNW | 340 3.6   1.9 9.9   4.1 0.00   0.00 0.00   0.00 35.5   6.2 64.1   8.1
Moss Creek Vineyard 2/23/20 1400 67.2   2.5 42.4   2.0 41   0 - - - 0.00   0.00 0.00   0.00 34.4   1.2 68.0   3.7
Max     67.4 46.1 47 - 6.4 11.4 0.00 0.00 37.9 68.0
Avg     66.1 44.0 45 - 4.8 9.7 0.00 - - -
Min     63.4 42.4 41 - 3.5 8.1 0.00 0.00 30.7 64.1

Napa County - Northern/Central

14 Stations

15 Minute Data | America/Los_Angeles
as of 2/23/20 2:12 PM PST
Station Date Time Temp (°F) RH (%) Dew Pt (°F) Wind Dir (°) Wind Spd (mph) Wind Gust (mph) Latest Rain (In) Daily Rain (In) Daily Min Temp (°F) Daily Max Temp (°F)
Calistoga 2/23/20 1400 67.2   5.7 43   16 44.1   6.5 - - - 0.00 0.00 36.0   1.0 67.8   6.3
St. Helena (TSH) 2/11/20 1000 70.9   4.7 16   5 22.4   2.3 NW | 308 4.4   0.5 15.6   6.4 0.00 0.00 60.8   22.3 71.6   3.6
Rutherford Hill - Estate 2/23/20 1400 63.9   2.3 52   1 46.1   2.4 SSW | 198 3.3   1.1 8.1   5.0 0.00 0.00 42.1   2.0 65.3   1.9
Mee Lane - MKV 2/23/20 1400 65.1   0.2 52   4 47.1   2.2 SSE | 162 2.6   5.4 6.6   7.0 0.00 0.00 40.6   2.5 65.9   1.4
Rutherford - STS 2/23/20 1400 65.4   1.4 54   3 48.2   2.9 ESE | 114 4.0   5.8 8.7   5.2 0.00 0.00 41.2   3.1 67.2   0.9
Skellenger 2/23/20 1400 64.9   0.8 49   3 45.4   2.4 SSW | 209 2.2   2.4 5.9   6.5 0.00 0.00 41.0   6.2 66.2   0.7
To Kalon 2/23/20 1400 65.2   0.5 48   7 45.0   4.2 SSE | 155 3.2   7.9 6.8   10.2 0.00 0.00 40.6   3.5 65.7   0.6
Wappo Hill 2/23/20 1400 65.5   0.1 46   9 44.0   4.7 SSE | 160 3.6   3.8 7.7   3.8 0.00 0.00 41.8   4.4 66.2   0.1
Stags Leap District - Chimney Rock 2/23/20 1400 66.4   0.3 44   9 43.6   4.7 ESE | 118 2.2   3.9 8.3   5.7 0.00 0.00 41.9   4.3 67.6   1.4
Napa River Ranch 2/23/20 1400 64.2   0.1 50   9 45.3   4.4 SE | 145 3.5   1.9 8.7   2.6 0.00 0.00 42.4   4.3 64.9   0.5
Truoak 2/23/20 1400 64.7   0.4 48   9 44.4   4.9 N | 0 0.0   0.0 0.0   0.0 0.00 0.00 43.3   5.7 65.5   0.2
Hunter Ranch 53 2/23/20 1400 65.5   1.3 45   12 43.4   5.3 SE | 124 3.5   3.8 7.2   5.6 0.00 0.00 41.3   3.7 65.8   0.8
Linda Vista 2/23/20 1400 64.6   0.7 47   12 44.0   5.2 SSE | 156 4.8   1.3 9.7   2.9 0.00 0.00 41.2   1.7 65.3   0.1
Napa River Vineyard, Ranch 29 2/23/20 1400 64.9   1.9 50   10 45.7   3.3 S | 173 3.4   3.7 10.0   5.0 0.00 0.00 43.3   7.3 66.4   2.0
Max     67.2 54 48.2 - 4.8 10.0 0.00 0.00 43.3 67.8
Avg     65.2 48 45.1 - 3.0 7.3 0.00 - - -
Min     63.9 43 43.4 - 0.0 0.0 0.00 0.00 36.0 64.9

Napa County - Southern

17 Stations

15 Minute Data | America/Los_Angeles
as of 2/23/20 2:12 PM PST
Station Date Time Temp (°F) RH (%) Dew Pt (°F) Wind Spd (mph) Wind Dir (°) Wind Gust (mph) Latest Rain (In) Daily Rain (In) Daily Min Temp (°F) Daily Max Temp (°F)
Mt. Veeder 2/23/20 1400 62.1   3.9 47   2 41.4   2.2 3.9   1.2 N | 11 9.9   3.3 0.00 0.00 39.6   15.7 62.6   6.3
Palmaz 300' 2/23/20 1400 67.7   1.0 43   8 44.5   3.6 2.7   1.7 SW | 215 6.0   2.6 0.00 0.00 40.5   1.9 70.5   1.4
Palmaz 1200' 2/23/20 1400 59.2   0.4 56   4 43.5   2.3 2.6   1.0 W | 270 7.0   0.8 - - 36.7   5.6 60.6   3.8
Palmaz 1400' 2/23/20 1400 59.1   0.7 57   4 43.7   2.4 3.8   0.5 SW | 214 8.6   1.1 0.00 0.00 39.5   2.2 59.5   8.0
Truchard Base 2/23/20 1400 64.8   2.4 54   11 47.9   2.8 7.1   2.8 SSW | 194 11.3   4.1 0.00 0.00 41.6   3.6 65.0   2.0
Truchard Remote 2/23/20 1400 65.1   2.3 52   13 47.1   3.9 - - - - - 35.1   1.7 65.5   1.5
Toyon Base (Napa South) 2/23/20 1400 64.2   2.5 57   9 48.6   1.8 6.6   4.2 S | 182 9.5   5.4 0.00 0.00 40.7   0.5 64.9   0.9
Toyon Remote 1 2/23/20 1400 65.1   3.8 - - - - - - - 36.4   2.2 66.0   2.4
Toyon Remote 2 2/23/20 1400 63.1   1.2 - - - - - - - 33.3   3.3 63.9   1.2
Toyon Remote 3 2/23/20 1400 65.7   3.8 - - - - - - - 36.2   1.4 66.6   2.7
Saintsbury Winery 2/23/20 1400 64.9   4.1 52   17 46.8   3.8 4.1   6.2 SSW | 211 7.7   8.7 0.00 0.00 38.6   2.0 65.9   2.9
Napa-SE 2/23/20 1400 64.1   2.8 53   10 46.7   2.2 3.8   6.3 SSW | 205 9.2   8.3 0.00 0.00 35.9   4.3 64.6   2.0
Suscol Mtn 2/23/20 1400 58.8   0.1 60   6 45.0   2.2 6.9   1.7 WSW | 240 12.5   0.5 0.00 0.00 40.7   10.3 59.2   4.8
Napa-SE Upper 2/23/20 1400 59.9   1.4 59   8 45.7   1.9 4.7   4.7 SW | 225 8.8   5.4 0.00 0.00 41.8   9.2 60.9   1.0
Stanly Ranch 45 2/23/20 1400 61.3   0.8 58   7 46.4   2.3 7.8   3.4 SSE | 156 11.2   6.3 0.00 0.00 36.8   4.8 62.0   0.4
Huichica Upper 2/23/20 1400 63.4   1.1 50   9 44.2   3.6 8.3   4.0 SW | 231 13.6   3.2 - - 41.0   5.4 64.2   0.4
Huichica-Lower 2/23/20 1400 65.8   2.7 47   12 45.3   3.7 2.9   3.2 WSW | 242 7.2   7.6 0.00 0.00 36.8   3.4 66.5   0.5
Max     67.7 60 48.6 8.3 - 13.6 0.00 0.00 41.8 70.5
Avg     63.2 53 45.5 5.0 - 9.4 0.00 - - -
Min     58.8 43 41.4 2.6 - 6.0 0.00 0.00 33.3 59.2